sensor_id;sensor_type;location;lat;lon;timestamp;temperature;humidity
60723;DHT22;46574;52.818;6.516;2024-03-06T00:00:07;6.60;99.90
60723;DHT22;46574;52.818;6.516;2024-03-06T00:02:35;6.60;99.90
60723;DHT22;46574;52.818;6.516;2024-03-06T00:05:00;6.50;99.90
60723;DHT22;46574;52.818;6.516;2024-03-06T00:07:26;6.50;99.90
60723;DHT22;46574;52.818;6.516;2024-03-06T00:09:52;6.50;99.90
60723;DHT22;46574;52.818;6.516;2024-03-06T00:12:18;6.50;99.90
60723;DHT22;46574;52.818;6.516;2024-03-06T00:14:44;6.50;99.90
60723;DHT22;46574;52.818;6.516;2024-03-06T00:17:10;6.50;99.90
60723;DHT22;46574;52.818;6.516;2024-03-06T00:19:35;6.50;99.90
60723;DHT22;46574;52.818;6.516;2024-03-06T00:22:01;6.50;99.90
60723;DHT22;46574;52.818;6.516;2024-03-06T00:24:28;6.50;99.90
60723;DHT22;46574;52.818;6.516;2024-03-06T00:26:53;6.50;99.90
60723;DHT22;46574;52.818;6.516;2024-03-06T00:29:19;6.40;99.90
60723;DHT22;46574;52.818;6.516;2024-03-06T00:31:45;6.40;99.90
60723;DHT22;46574;52.818;6.516;2024-03-06T00:34:11;6.40;99.90
60723;DHT22;46574;52.818;6.516;2024-03-06T00:36:40;6.40;99.90
60723;DHT22;46574;52.818;6.516;2024-03-06T00:39:06;6.40;99.90
60723;DHT22;46574;52.818;6.516;2024-03-06T00:41:34;6.40;99.90
60723;DHT22;46574;52.818;6.516;2024-03-06T00:43:59;6.40;99.90
60723;DHT22;46574;52.818;6.516;2024-03-06T00:46:25;6.40;99.90
60723;DHT22;46574;52.818;6.516;2024-03-06T00:48:51;6.40;99.90
60723;DHT22;46574;52.818;6.516;2024-03-06T00:51:16;6.40;99.90
60723;DHT22;46574;52.818;6.516;2024-03-06T00:53:42;6.30;99.90
60723;DHT22;46574;52.818;6.516;2024-03-06T00:56:08;6.30;99.90
60723;DHT22;46574;52.818;6.516;2024-03-06T00:58:33;6.30;99.90
60723;DHT22;46574;52.818;6.516;2024-03-06T01:00:59;6.30;99.90
60723;DHT22;46574;52.818;6.516;2024-03-06T01:03:24;6.30;99.90
60723;DHT22;46574;52.818;6.516;2024-03-06T01:05:50;6.30;99.90
60723;DHT22;46574;52.818;6.516;2024-03-06T01:08:19;6.20;99.90
60723;DHT22;46574;52.818;6.516;2024-03-06T01:10:44;6.20;99.90
60723;DHT22;46574;52.818;6.516;2024-03-06T01:13:10;6.30;99.90
60723;DHT22;46574;52.818;6.516;2024-03-06T01:15:37;6.30;99.90
60723;DHT22;46574;52.818;6.516;2024-03-06T01:18:03;6.20;99.90
60723;DHT22;46574;52.818;6.516;2024-03-06T01:20:28;6.20;99.90
60723;DHT22;46574;52.818;6.516;2024-03-06T01:22:54;6.20;99.90
60723;DHT22;46574;52.818;6.516;2024-03-06T01:25:20;6.20;99.90
60723;DHT22;46574;52.818;6.516;2024-03-06T01:27:48;6.20;99.90
60723;DHT22;46574;52.818;6.516;2024-03-06T01:30:14;6.20;99.90
60723;DHT22;46574;52.818;6.516;2024-03-06T01:32:40;6.10;99.90
60723;DHT22;46574;52.818;6.516;2024-03-06T01:35:06;6.10;99.90
60723;DHT22;46574;52.818;6.516;2024-03-06T01:37:32;6.20;99.90
60723;DHT22;46574;52.818;6.516;2024-03-06T01:39:57;6.10;99.90
60723;DHT22;46574;52.818;6.516;2024-03-06T01:42:23;6.10;99.90
60723;DHT22;46574;52.818;6.516;2024-03-06T01:44:49;6.10;99.90
60723;DHT22;46574;52.818;6.516;2024-03-06T01:47:15;6.10;99.90
60723;DHT22;46574;52.818;6.516;2024-03-06T01:49:41;6.10;99.90
60723;DHT22;46574;52.818;6.516;2024-03-06T01:52:09;6.10;99.90
60723;DHT22;46574;52.818;6.516;2024-03-06T01:54:37;6.10;99.90
60723;DHT22;46574;52.818;6.516;2024-03-06T01:57:04;6.10;99.90
60723;DHT22;46574;52.818;6.516;2024-03-06T01:59:32;6.00;99.90
60723;DHT22;46574;52.818;6.516;2024-03-06T02:01:58;6.00;99.90
60723;DHT22;46574;52.818;6.516;2024-03-06T02:04:24;6.00;99.90
60723;DHT22;46574;52.818;6.516;2024-03-06T02:06:53;6.10;99.90
60723;DHT22;46574;52.818;6.516;2024-03-06T02:09:19;6.10;99.90
60723;DHT22;46574;52.818;6.516;2024-03-06T02:11:45;6.00;99.90
60723;DHT22;46574;52.818;6.516;2024-03-06T02:14:11;6.00;99.90
60723;DHT22;46574;52.818;6.516;2024-03-06T02:16:37;6.00;99.90
60723;DHT22;46574;52.818;6.516;2024-03-06T02:19:04;6.00;99.90
60723;DHT22;46574;52.818;6.516;2024-03-06T02:21:30;6.00;99.90
60723;DHT22;46574;52.818;6.516;2024-03-06T02:23:56;6.00;99.90
60723;DHT22;46574;52.818;6.516;2024-03-06T02:26:22;6.00;99.90
60723;DHT22;46574;52.818;6.516;2024-03-06T02:28:49;6.00;99.90
60723;DHT22;46574;52.818;6.516;2024-03-06T02:31:16;6.00;99.90
60723;DHT22;46574;52.818;6.516;2024-03-06T02:33:43;6.00;99.90
60723;DHT22;46574;52.818;6.516;2024-03-06T02:36:18;6.00;99.90
60723;DHT22;46574;52.818;6.516;2024-03-06T02:38:45;6.00;99.90
60723;DHT22;46574;52.818;6.516;2024-03-06T02:41:11;5.90;99.90
60723;DHT22;46574;52.818;6.516;2024-03-06T02:43:39;5.90;99.90
60723;DHT22;46574;52.818;6.516;2024-03-06T02:46:05;6.00;99.90
60723;DHT22;46574;52.818;6.516;2024-03-06T02:48:31;6.00;99.90
60723;DHT22;46574;52.818;6.516;2024-03-06T02:50:57;5.90;99.90
60723;DHT22;46574;52.818;6.516;2024-03-06T02:53:23;5.90;99.90
60723;DHT22;46574;52.818;6.516;2024-03-06T02:55:48;5.90;99.90
60723;DHT22;46574;52.818;6.516;2024-03-06T02:58:15;5.90;99.90
60723;DHT22;46574;52.818;6.516;2024-03-06T03:00:42;5.90;99.90
60723;DHT22;46574;52.818;6.516;2024-03-06T03:03:08;5.90;99.90
60723;DHT22;46574;52.818;6.516;2024-03-06T03:05:35;5.90;99.90
60723;DHT22;46574;52.818;6.516;2024-03-06T03:08:01;5.90;99.90
60723;DHT22;46574;52.818;6.516;2024-03-06T03:10:27;5.90;99.90
60723;DHT22;46574;52.818;6.516;2024-03-06T03:12:53;6.00;99.90
60723;DHT22;46574;52.818;6.516;2024-03-06T03:15:19;6.00;99.90
60723;DHT22;46574;52.818;6.516;2024-03-06T03:17:46;6.00;99.90
60723;DHT22;46574;52.818;6.516;2024-03-06T03:20:11;5.90;99.90
60723;DHT22;46574;52.818;6.516;2024-03-06T03:22:40;5.90;99.90
60723;DHT22;46574;52.818;6.516;2024-03-06T03:25:10;5.90;99.90
60723;DHT22;46574;52.818;6.516;2024-03-06T03:27:40;5.90;99.90
60723;DHT22;46574;52.818;6.516;2024-03-06T03:30:12;5.90;99.90
60723;DHT22;46574;52.818;6.516;2024-03-06T03:32:38;6.00;99.90
60723;DHT22;46574;52.818;6.516;2024-03-06T03:35:05;5.90;99.90
60723;DHT22;46574;52.818;6.516;2024-03-06T03:37:31;6.00;99.90
60723;DHT22;46574;52.818;6.516;2024-03-06T03:39:57;5.90;99.90
60723;DHT22;46574;52.818;6.516;2024-03-06T03:42:23;6.00;99.90
60723;DHT22;46574;52.818;6.516;2024-03-06T03:44:48;5.90;99.90
60723;DHT22;46574;52.818;6.516;2024-03-06T03:47:14;5.90;99.90
60723;DHT22;46574;52.818;6.516;2024-03-06T03:49:39;5.90;99.90
60723;DHT22;46574;52.818;6.516;2024-03-06T03:52:05;5.90;99.90
60723;DHT22;46574;52.818;6.516;2024-03-06T03:54:31;5.90;99.90
60723;DHT22;46574;52.818;6.516;2024-03-06T03:56:56;6.00;99.90
60723;DHT22;46574;52.818;6.516;2024-03-06T03:59:24;5.90;99.90
60723;DHT22;46574;52.818;6.516;2024-03-06T04:01:50;5.90;99.90
60723;DHT22;46574;52.818;6.516;2024-03-06T04:04:16;6.00;99.90
60723;DHT22;46574;52.818;6.516;2024-03-06T04:06:41;5.90;99.90
60723;DHT22;46574;52.818;6.516;2024-03-06T04:09:07;6.00;99.90
60723;DHT22;46574;52.818;6.516;2024-03-06T04:11:36;6.00;99.90
60723;DHT22;46574;52.818;6.516;2024-03-06T04:14:03;6.00;99.90
60723;DHT22;46574;52.818;6.516;2024-03-06T04:16:29;6.00;99.90
60723;DHT22;46574;52.818;6.516;2024-03-06T04:18:54;6.00;99.90
60723;DHT22;46574;52.818;6.516;2024-03-06T04:21:20;6.00;99.90
60723;DHT22;46574;52.818;6.516;2024-03-06T04:23:46;5.90;99.90
60723;DHT22;46574;52.818;6.516;2024-03-06T04:26:11;6.00;99.90
60723;DHT22;46574;52.818;6.516;2024-03-06T04:28:37;6.00;99.90
60723;DHT22;46574;52.818;6.516;2024-03-06T04:31:04;6.00;99.90
60723;DHT22;46574;52.818;6.516;2024-03-06T04:33:29;6.00;99.90
60723;DHT22;46574;52.818;6.516;2024-03-06T04:35:55;6.00;99.90
60723;DHT22;46574;52.818;6.516;2024-03-06T04:38:21;6.00;99.90
60723;DHT22;46574;52.818;6.516;2024-03-06T04:40:47;6.00;99.90
60723;DHT22;46574;52.818;6.516;2024-03-06T04:43:13;6.00;99.90
60723;DHT22;46574;52.818;6.516;2024-03-06T04:45:39;6.00;99.90
60723;DHT22;46574;52.818;6.516;2024-03-06T04:48:05;6.00;99.90
60723;DHT22;46574;52.818;6.516;2024-03-06T04:50:31;6.00;99.90
60723;DHT22;46574;52.818;6.516;2024-03-06T04:52:57;6.00;99.90
60723;DHT22;46574;52.818;6.516;2024-03-06T04:55:22;6.00;99.90
60723;DHT22;46574;52.818;6.516;2024-03-06T04:57:48;6.00;99.90
60723;DHT22;46574;52.818;6.516;2024-03-06T05:00:15;6.00;99.90
60723;DHT22;46574;52.818;6.516;2024-03-06T05:02:41;6.00;99.90
60723;DHT22;46574;52.818;6.516;2024-03-06T05:05:08;6.00;99.90
60723;DHT22;46574;52.818;6.516;2024-03-06T05:07:34;6.00;99.90
60723;DHT22;46574;52.818;6.516;2024-03-06T05:10:00;6.00;99.90
60723;DHT22;46574;52.818;6.516;2024-03-06T05:12:27;6.00;99.90
60723;DHT22;46574;52.818;6.516;2024-03-06T05:14:54;6.00;99.90
60723;DHT22;46574;52.818;6.516;2024-03-06T05:17:19;6.00;99.90
60723;DHT22;46574;52.818;6.516;2024-03-06T05:19:46;6.00;99.90
60723;DHT22;46574;52.818;6.516;2024-03-06T05:22:13;6.00;99.90
60723;DHT22;46574;52.818;6.516;2024-03-06T05:24:40;6.00;99.90
60723;DHT22;46574;52.818;6.516;2024-03-06T05:27:06;6.00;99.90
60723;DHT22;46574;52.818;6.516;2024-03-06T05:29:32;6.00;99.90
60723;DHT22;46574;52.818;6.516;2024-03-06T05:31:58;6.00;99.90
60723;DHT22;46574;52.818;6.516;2024-03-06T05:34:24;6.00;99.90
60723;DHT22;46574;52.818;6.516;2024-03-06T05:36:50;6.00;99.90
60723;DHT22;46574;52.818;6.516;2024-03-06T05:39:15;6.00;99.90
60723;DHT22;46574;52.818;6.516;2024-03-06T05:41:43;6.00;99.90
60723;DHT22;46574;52.818;6.516;2024-03-06T05:44:09;6.00;99.90
60723;DHT22;46574;52.818;6.516;2024-03-06T05:46:35;6.00;99.90
60723;DHT22;46574;52.818;6.516;2024-03-06T05:49:01;6.00;99.90
60723;DHT22;46574;52.818;6.516;2024-03-06T05:51:27;6.00;99.90
60723;DHT22;46574;52.818;6.516;2024-03-06T05:53:53;6.00;99.90
60723;DHT22;46574;52.818;6.516;2024-03-06T05:56:19;6.00;99.90
60723;DHT22;46574;52.818;6.516;2024-03-06T05:58:45;6.00;99.90
60723;DHT22;46574;52.818;6.516;2024-03-06T06:01:13;6.00;99.90
60723;DHT22;46574;52.818;6.516;2024-03-06T06:03:41;6.10;99.90
60723;DHT22;46574;52.818;6.516;2024-03-06T06:06:06;6.00;99.90
60723;DHT22;46574;52.818;6.516;2024-03-06T06:08:34;6.00;99.90
60723;DHT22;46574;52.818;6.516;2024-03-06T06:11:01;6.00;99.90
60723;DHT22;46574;52.818;6.516;2024-03-06T06:13:28;6.00;99.90
60723;DHT22;46574;52.818;6.516;2024-03-06T06:15:54;6.00;99.90
60723;DHT22;46574;52.818;6.516;2024-03-06T06:18:20;6.00;99.90
60723;DHT22;46574;52.818;6.516;2024-03-06T06:20:45;6.00;99.90
60723;DHT22;46574;52.818;6.516;2024-03-06T06:23:11;6.00;99.90
60723;DHT22;46574;52.818;6.516;2024-03-06T06:25:37;6.00;99.90
60723;DHT22;46574;52.818;6.516;2024-03-06T06:28:03;6.00;99.90
60723;DHT22;46574;52.818;6.516;2024-03-06T06:30:29;6.00;99.90
60723;DHT22;46574;52.818;6.516;2024-03-06T06:32:55;6.00;99.90
60723;DHT22;46574;52.818;6.516;2024-03-06T06:35:20;6.10;99.90
60723;DHT22;46574;52.818;6.516;2024-03-06T06:37:48;6.00;99.90
60723;DHT22;46574;52.818;6.516;2024-03-06T06:40:13;6.00;99.90
60723;DHT22;46574;52.818;6.516;2024-03-06T06:42:44;6.00;99.90
60723;DHT22;46574;52.818;6.516;2024-03-06T06:45:18;6.00;99.90
60723;DHT22;46574;52.818;6.516;2024-03-06T06:47:44;6.00;99.90
60723;DHT22;46574;52.818;6.516;2024-03-06T06:50:10;6.00;99.90
60723;DHT22;46574;52.818;6.516;2024-03-06T06:52:37;6.00;99.90
60723;DHT22;46574;52.818;6.516;2024-03-06T06:55:03;6.00;99.90
60723;DHT22;46574;52.818;6.516;2024-03-06T06:57:30;6.00;99.90
60723;DHT22;46574;52.818;6.516;2024-03-06T06:59:55;6.00;99.90
60723;DHT22;46574;52.818;6.516;2024-03-06T07:02:21;6.00;99.90
60723;DHT22;46574;52.818;6.516;2024-03-06T07:04:47;6.10;99.90
60723;DHT22;46574;52.818;6.516;2024-03-06T07:07:14;6.10;99.90
60723;DHT22;46574;52.818;6.516;2024-03-06T07:09:40;6.10;99.90
60723;DHT22;46574;52.818;6.516;2024-03-06T07:12:06;6.10;99.90
60723;DHT22;46574;52.818;6.516;2024-03-06T07:14:33;6.10;99.90
60723;DHT22;46574;52.818;6.516;2024-03-06T07:16:58;6.10;99.90
60723;DHT22;46574;52.818;6.516;2024-03-06T07:19:24;6.10;99.90
60723;DHT22;46574;52.818;6.516;2024-03-06T07:21:50;6.10;99.90
60723;DHT22;46574;52.818;6.516;2024-03-06T07:24:16;6.10;99.90
60723;DHT22;46574;52.818;6.516;2024-03-06T07:26:41;6.10;99.90
60723;DHT22;46574;52.818;6.516;2024-03-06T07:29:07;6.10;99.90
60723;DHT22;46574;52.818;6.516;2024-03-06T07:31:43;6.20;99.90
60723;DHT22;46574;52.818;6.516;2024-03-06T07:34:09;6.10;99.90
60723;DHT22;46574;52.818;6.516;2024-03-06T07:36:35;6.20;99.90
60723;DHT22;46574;52.818;6.516;2024-03-06T07:39:02;6.20;99.90
60723;DHT22;46574;52.818;6.516;2024-03-06T07:41:28;6.20;99.90
60723;DHT22;46574;52.818;6.516;2024-03-06T07:43:54;6.20;99.90
60723;DHT22;46574;52.818;6.516;2024-03-06T07:46:20;6.20;99.90
60723;DHT22;46574;52.818;6.516;2024-03-06T07:48:45;6.20;99.90
60723;DHT22;46574;52.818;6.516;2024-03-06T07:51:11;6.20;99.90
60723;DHT22;46574;52.818;6.516;2024-03-06T07:53:37;6.30;99.90
60723;DHT22;46574;52.818;6.516;2024-03-06T07:56:03;6.30;99.90
60723;DHT22;46574;52.818;6.516;2024-03-06T07:58:29;6.30;99.90
60723;DHT22;46574;52.818;6.516;2024-03-06T08:00:54;6.30;99.90
60723;DHT22;46574;52.818;6.516;2024-03-06T08:03:25;6.30;99.90
60723;DHT22;46574;52.818;6.516;2024-03-06T08:05:53;6.30;99.90
60723;DHT22;46574;52.818;6.516;2024-03-06T08:08:19;6.30;99.90
60723;DHT22;46574;52.818;6.516;2024-03-06T08:10:45;6.30;99.90
60723;DHT22;46574;52.818;6.516;2024-03-06T08:13:11;6.40;99.90
60723;DHT22;46574;52.818;6.516;2024-03-06T08:15:37;6.40;99.90
60723;DHT22;46574;52.818;6.516;2024-03-06T08:18:03;6.40;99.90
60723;DHT22;46574;52.818;6.516;2024-03-06T08:20:29;6.40;99.90
60723;DHT22;46574;52.818;6.516;2024-03-06T08:22:56;6.40;99.90
60723;DHT22;46574;52.818;6.516;2024-03-06T08:25:21;6.40;99.90
60723;DHT22;46574;52.818;6.516;2024-03-06T08:27:47;6.50;99.90
60723;DHT22;46574;52.818;6.516;2024-03-06T08:30:13;6.50;99.90
60723;DHT22;46574;52.818;6.516;2024-03-06T08:32:39;6.60;99.90
60723;DHT22;46574;52.818;6.516;2024-03-06T08:35:06;6.60;99.90
60723;DHT22;46574;52.818;6.516;2024-03-06T08:37:32;6.60;99.90
60723;DHT22;46574;52.818;6.516;2024-03-06T08:39:59;6.70;99.90
60723;DHT22;46574;52.818;6.516;2024-03-06T08:42:25;6.70;99.90
60723;DHT22;46574;52.818;6.516;2024-03-06T08:44:51;6.70;99.90
60723;DHT22;46574;52.818;6.516;2024-03-06T08:47:16;6.70;99.90
60723;DHT22;46574;52.818;6.516;2024-03-06T08:49:42;6.80;99.90
60723;DHT22;46574;52.818;6.516;2024-03-06T08:52:08;6.80;99.90
60723;DHT22;46574;52.818;6.516;2024-03-06T08:54:35;6.80;99.90
60723;DHT22;46574;52.818;6.516;2024-03-06T08:57:01;6.80;99.90
60723;DHT22;46574;52.818;6.516;2024-03-06T08:59:29;6.80;99.90
60723;DHT22;46574;52.818;6.516;2024-03-06T09:01:54;6.80;99.90
60723;DHT22;46574;52.818;6.516;2024-03-06T09:04:21;6.90;99.90
60723;DHT22;46574;52.818;6.516;2024-03-06T09:06:47;6.80;99.90
60723;DHT22;46574;52.818;6.516;2024-03-06T09:09:14;6.90;99.90
60723;DHT22;46574;52.818;6.516;2024-03-06T09:11:43;6.90;99.90
60723;DHT22;46574;52.818;6.516;2024-03-06T09:14:09;6.90;99.90
60723;DHT22;46574;52.818;6.516;2024-03-06T09:16:35;6.90;99.90
60723;DHT22;46574;52.818;6.516;2024-03-06T09:19:01;6.90;99.90
60723;DHT22;46574;52.818;6.516;2024-03-06T09:21:27;7.00;99.90
60723;DHT22;46574;52.818;6.516;2024-03-06T09:23:53;7.00;99.90
60723;DHT22;46574;52.818;6.516;2024-03-06T09:26:19;7.00;99.90
60723;DHT22;46574;52.818;6.516;2024-03-06T09:28:46;7.10;99.90
60723;DHT22;46574;52.818;6.516;2024-03-06T09:31:11;7.10;99.90
60723;DHT22;46574;52.818;6.516;2024-03-06T09:33:41;7.10;99.90
60723;DHT22;46574;52.818;6.516;2024-03-06T09:36:10;7.20;99.90
60723;DHT22;46574;52.818;6.516;2024-03-06T09:38:35;7.10;99.90
60723;DHT22;46574;52.818;6.516;2024-03-06T09:41:03;7.20;99.90
60723;DHT22;46574;52.818;6.516;2024-03-06T09:43:29;7.10;99.90
60723;DHT22;46574;52.818;6.516;2024-03-06T09:45:55;7.10;99.90
60723;DHT22;46574;52.818;6.516;2024-03-06T09:48:22;7.10;99.90
60723;DHT22;46574;52.818;6.516;2024-03-06T09:50:49;7.20;99.90
60723;DHT22;46574;52.818;6.516;2024-03-06T09:53:18;7.20;99.90
60723;DHT22;46574;52.818;6.516;2024-03-06T09:55:46;7.20;99.90
60723;DHT22;46574;52.818;6.516;2024-03-06T09:58:12;7.30;99.90
60723;DHT22;46574;52.818;6.516;2024-03-06T10:00:38;7.30;99.90
60723;DHT22;46574;52.818;6.516;2024-03-06T10:03:04;7.40;99.90
60723;DHT22;46574;52.818;6.516;2024-03-06T10:05:34;7.40;99.90
60723;DHT22;46574;52.818;6.516;2024-03-06T10:08:01;7.50;99.90
60723;DHT22;46574;52.818;6.516;2024-03-06T10:10:27;7.60;99.90
60723;DHT22;46574;52.818;6.516;2024-03-06T10:12:53;7.60;99.90
60723;DHT22;46574;52.818;6.516;2024-03-06T10:15:19;7.70;99.90
60723;DHT22;46574;52.818;6.516;2024-03-06T10:17:45;7.80;99.90
60723;DHT22;46574;52.818;6.516;2024-03-06T10:20:18;7.80;99.90
60723;DHT22;46574;52.818;6.516;2024-03-06T10:22:51;7.90;99.90
60723;DHT22;46574;52.818;6.516;2024-03-06T10:25:21;8.00;99.90
60723;DHT22;46574;52.818;6.516;2024-03-06T10:28:08;8.00;99.90
60723;DHT22;46574;52.818;6.516;2024-03-06T10:30:36;8.10;99.90
60723;DHT22;46574;52.818;6.516;2024-03-06T10:33:05;8.10;99.90
60723;DHT22;46574;52.818;6.516;2024-03-06T10:35:41;8.10;99.90
60723;DHT22;46574;52.818;6.516;2024-03-06T10:38:07;8.10;99.90
60723;DHT22;46574;52.818;6.516;2024-03-06T10:40:38;8.10;99.90
60723;DHT22;46574;52.818;6.516;2024-03-06T10:43:05;8.10;99.90
60723;DHT22;46574;52.818;6.516;2024-03-06T10:45:49;8.20;99.90
60723;DHT22;46574;52.818;6.516;2024-03-06T10:48:19;8.20;99.90
60723;DHT22;46574;52.818;6.516;2024-03-06T10:50:46;8.20;99.90
60723;DHT22;46574;52.818;6.516;2024-03-06T10:53:14;8.20;99.90
60723;DHT22;46574;52.818;6.516;2024-03-06T10:55:42;8.30;99.90
60723;DHT22;46574;52.818;6.516;2024-03-06T10:58:10;8.30;99.90
60723;DHT22;46574;52.818;6.516;2024-03-06T11:00:40;8.30;99.90
60723;DHT22;46574;52.818;6.516;2024-03-06T11:03:07;8.30;99.90
60723;DHT22;46574;52.818;6.516;2024-03-06T11:05:37;8.40;99.90
60723;DHT22;46574;52.818;6.516;2024-03-06T11:08:13;8.40;99.90
60723;DHT22;46574;52.818;6.516;2024-03-06T11:10:41;8.50;99.90
60723;DHT22;46574;52.818;6.516;2024-03-06T11:13:25;8.50;99.90
60723;DHT22;46574;52.818;6.516;2024-03-06T11:15:57;8.50;99.90
60723;DHT22;46574;52.818;6.516;2024-03-06T11:23:27;8.50;99.90
60723;DHT22;46574;52.818;6.516;2024-03-06T11:28:24;8.60;99.90
60723;DHT22;46574;52.818;6.516;2024-03-06T11:33:34;8.70;99.90
60723;DHT22;46574;52.818;6.516;2024-03-06T11:36:20;8.70;99.90
60723;DHT22;46574;52.818;6.516;2024-03-06T11:41:23;8.90;99.90
60723;DHT22;46574;52.818;6.516;2024-03-06T11:43:50;8.90;99.90
60723;DHT22;46574;52.818;6.516;2024-03-06T11:46:19;9.00;99.90
60723;DHT22;46574;52.818;6.516;2024-03-06T11:48:53;9.10;99.90
60723;DHT22;46574;52.818;6.516;2024-03-06T11:51:19;9.20;99.90
60723;DHT22;46574;52.818;6.516;2024-03-06T11:53:45;9.20;99.90
60723;DHT22;46574;52.818;6.516;2024-03-06T11:56:11;9.30;99.90
60723;DHT22;46574;52.818;6.516;2024-03-06T11:58:37;9.30;99.90
60723;DHT22;46574;52.818;6.516;2024-03-06T12:01:03;9.30;99.90
60723;DHT22;46574;52.818;6.516;2024-03-06T12:03:30;9.40;99.90
60723;DHT22;46574;52.818;6.516;2024-03-06T12:05:55;9.50;99.90
60723;DHT22;46574;52.818;6.516;2024-03-06T12:08:21;9.60;99.90
60723;DHT22;46574;52.818;6.516;2024-03-06T12:10:47;9.60;99.90
60723;DHT22;46574;52.818;6.516;2024-03-06T12:13:15;9.60;99.90
60723;DHT22;46574;52.818;6.516;2024-03-06T12:15:45;9.70;99.90
60723;DHT22;46574;52.818;6.516;2024-03-06T12:18:11;9.70;99.90
60723;DHT22;46574;52.818;6.516;2024-03-06T12:20:43;9.80;99.90
60723;DHT22;46574;52.818;6.516;2024-03-06T12:23:19;9.90;99.90
60723;DHT22;46574;52.818;6.516;2024-03-06T12:25:46;10.00;99.90
60723;DHT22;46574;52.818;6.516;2024-03-06T12:28:12;10.10;99.90
60723;DHT22;46574;52.818;6.516;2024-03-06T12:30:42;10.20;99.90
60723;DHT22;46574;52.818;6.516;2024-03-06T12:33:08;10.30;99.90
60723;DHT22;46574;52.818;6.516;2024-03-06T12:35:36;10.40;99.90
60723;DHT22;46574;52.818;6.516;2024-03-06T12:38:14;10.60;99.90
60723;DHT22;46574;52.818;6.516;2024-03-06T12:40:41;10.60;99.90
60723;DHT22;46574;52.818;6.516;2024-03-06T12:43:06;10.70;99.90
60723;DHT22;46574;52.818;6.516;2024-03-06T12:45:33;10.70;99.90
60723;DHT22;46574;52.818;6.516;2024-03-06T12:47:59;10.70;99.90
60723;DHT22;46574;52.818;6.516;2024-03-06T12:50:25;10.70;99.90
60723;DHT22;46574;52.818;6.516;2024-03-06T12:52:50;10.70;99.90
60723;DHT22;46574;52.818;6.516;2024-03-06T12:55:17;10.80;99.90
60723;DHT22;46574;52.818;6.516;2024-03-06T12:57:45;10.80;99.90
60723;DHT22;46574;52.818;6.516;2024-03-06T13:00:13;10.80;99.90
60723;DHT22;46574;52.818;6.516;2024-03-06T13:02:44;10.90;99.90
60723;DHT22;46574;52.818;6.516;2024-03-06T13:05:11;10.90;99.90
60723;DHT22;46574;52.818;6.516;2024-03-06T13:07:36;10.90;99.90
60723;DHT22;46574;52.818;6.516;2024-03-06T13:10:03;11.00;99.90
60723;DHT22;46574;52.818;6.516;2024-03-06T13:12:29;11.10;99.90
60723;DHT22;46574;52.818;6.516;2024-03-06T13:14:54;11.20;99.90
60723;DHT22;46574;52.818;6.516;2024-03-06T13:17:22;11.30;99.90
60723;DHT22;46574;52.818;6.516;2024-03-06T13:19:48;11.30;99.90
60723;DHT22;46574;52.818;6.516;2024-03-06T13:22:14;11.40;99.90
60723;DHT22;46574;52.818;6.516;2024-03-06T13:24:40;11.50;99.90
60723;DHT22;46574;52.818;6.516;2024-03-06T13:27:05;11.60;99.90
60723;DHT22;46574;52.818;6.516;2024-03-06T13:29:31;11.60;99.90
60723;DHT22;46574;52.818;6.516;2024-03-06T13:31:57;11.60;99.90
60723;DHT22;46574;52.818;6.516;2024-03-06T13:34:22;11.70;99.90
60723;DHT22;46574;52.818;6.516;2024-03-06T13:36:48;11.80;99.90
60723;DHT22;46574;52.818;6.516;2024-03-06T13:39:13;11.90;99.90
60723;DHT22;46574;52.818;6.516;2024-03-06T13:41:40;11.90;99.90
60723;DHT22;46574;52.818;6.516;2024-03-06T13:44:08;12.20;99.90
60723;DHT22;46574;52.818;6.516;2024-03-06T13:46:34;12.70;99.90
60723;DHT22;46574;52.818;6.516;2024-03-06T13:49:00;12.80;99.90
60723;DHT22;46574;52.818;6.516;2024-03-06T13:51:26;12.80;99.90
60723;DHT22;46574;52.818;6.516;2024-03-06T13:53:51;12.80;99.90
60723;DHT22;46574;52.818;6.516;2024-03-06T13:56:17;12.80;99.90
60723;DHT22;46574;52.818;6.516;2024-03-06T13:58:43;12.90;99.90
60723;DHT22;46574;52.818;6.516;2024-03-06T14:01:09;13.00;99.90
60723;DHT22;46574;52.818;6.516;2024-03-06T14:03:35;13.20;99.90
60723;DHT22;46574;52.818;6.516;2024-03-06T14:06:03;13.40;99.90
60723;DHT22;46574;52.818;6.516;2024-03-06T14:08:29;13.50;99.90
60723;DHT22;46574;52.818;6.516;2024-03-06T14:10:55;13.60;99.90
60723;DHT22;46574;52.818;6.516;2024-03-06T14:13:21;14.00;99.90
60723;DHT22;46574;52.818;6.516;2024-03-06T14:15:46;14.10;99.90
60723;DHT22;46574;52.818;6.516;2024-03-06T14:18:13;14.00;99.90
60723;DHT22;46574;52.818;6.516;2024-03-06T14:20:39;14.00;99.90
60723;DHT22;46574;52.818;6.516;2024-03-06T14:23:05;14.00;99.90
60723;DHT22;46574;52.818;6.516;2024-03-06T14:25:30;14.20;99.90
60723;DHT22;46574;52.818;6.516;2024-03-06T14:28:00;14.30;99.90
60723;DHT22;46574;52.818;6.516;2024-03-06T14:30:26;14.10;99.90
60723;DHT22;46574;52.818;6.516;2024-03-06T14:32:53;14.00;99.90
60723;DHT22;46574;52.818;6.516;2024-03-06T14:35:18;13.80;99.90
60723;DHT22;46574;52.818;6.516;2024-03-06T14:37:44;13.80;99.90
60723;DHT22;46574;52.818;6.516;2024-03-06T14:40:10;13.70;99.90
60723;DHT22;46574;52.818;6.516;2024-03-06T14:42:36;13.50;99.90
60723;DHT22;46574;52.818;6.516;2024-03-06T14:45:02;13.30;99.90
60723;DHT22;46574;52.818;6.516;2024-03-06T14:47:31;13.20;99.90
60723;DHT22;46574;52.818;6.516;2024-03-06T14:49:57;13.40;99.90
60723;DHT22;46574;52.818;6.516;2024-03-06T14:52:23;13.30;99.90
60723;DHT22;46574;52.818;6.516;2024-03-06T14:54:48;13.10;99.90
60723;DHT22;46574;52.818;6.516;2024-03-06T14:57:14;13.00;99.90
60723;DHT22;46574;52.818;6.516;2024-03-06T14:59:40;13.10;99.90
60723;DHT22;46574;52.818;6.516;2024-03-06T15:02:06;13.10;99.90
60723;DHT22;46574;52.818;6.516;2024-03-06T15:04:32;13.30;99.90
60723;DHT22;46574;52.818;6.516;2024-03-06T15:06:57;13.40;99.90
60723;DHT22;46574;52.818;6.516;2024-03-06T15:09:25;13.30;99.90
60723;DHT22;46574;52.818;6.516;2024-03-06T15:11:51;13.00;99.90
60723;DHT22;46574;52.818;6.516;2024-03-06T15:14:18;13.10;99.90
60723;DHT22;46574;52.818;6.516;2024-03-06T15:16:44;13.20;99.90
60723;DHT22;46574;52.818;6.516;2024-03-06T15:19:10;13.10;99.90
60723;DHT22;46574;52.818;6.516;2024-03-06T15:21:35;12.80;99.90
60723;DHT22;46574;52.818;6.516;2024-03-06T15:24:01;12.60;99.90
60723;DHT22;46574;52.818;6.516;2024-03-06T15:26:27;12.40;99.90
60723;DHT22;46574;52.818;6.516;2024-03-06T15:28:52;12.20;99.90
60723;DHT22;46574;52.818;6.516;2024-03-06T15:31:19;12.10;99.90
60723;DHT22;46574;52.818;6.516;2024-03-06T15:33:44;12.00;99.90
60723;DHT22;46574;52.818;6.516;2024-03-06T15:36:15;11.90;99.90
60723;DHT22;46574;52.818;6.516;2024-03-06T15:38:41;11.90;99.90
60723;DHT22;46574;52.818;6.516;2024-03-06T15:41:07;11.90;99.90
60723;DHT22;46574;52.818;6.516;2024-03-06T15:43:39;11.80;99.90
60723;DHT22;46574;52.818;6.516;2024-03-06T15:46:04;11.70;99.90
60723;DHT22;46574;52.818;6.516;2024-03-06T15:48:30;11.70;99.90
60723;DHT22;46574;52.818;6.516;2024-03-06T15:50:57;11.60;99.90